»·PEaware :: N43700 KFUL-KCRQ

N43700 :: KFUL-KCRQ

FLIGHT INFORMATION

Flight Status: Arrived
Operator: Privately registered:
United States
More flights under this callsign
Pilot: Anonymous 25888 (25888)
Aircraft: PIPER PA-28 CHEROKEE ARCHER
(PA28)
More flights by this aircraft type
Origin: KFUL Fullerton Mun
United States
Destination: KCRQ McClellan-Palomar
United States
More flights between these airports :: More routes between these airports
Route: SLI V23 OCN
File this flight plan on PilotEdge
Remarks:
Altitude:
(Current/Filed)
5,000ft
Speed:
(Current/Filed)
110kts
Departed: 03-Sep-19 06:13 PM
Arrived: 03-Sep-19 06:51 PM
Distance/Time
Traveled:
57nm/0:37
Distance/Time
To Go:
Arrived

Flight Plot

Page will automatically refresh every two minutes.


Map Options




Map Legend


Flown Route
Filed Route
Departure Airport
Arrival Airport
Navaid (VOR, NDB)
Fix

Horizontal Profiles

Position Reports

Time Latitude Longitude Heading Altitude Ground
Speed
03-Sep-19 17:55 33.872827 -117.980910 262 99ft 0kts
03-Sep-19 17:56 33.872827 -117.980910 262 99ft 0kts
03-Sep-19 17:57 33.872827 -117.980910 262 99ft 0kts
03-Sep-19 17:58 33.872827 -117.980915 262 99ft 0kts
03-Sep-19 17:59 33.872827 -117.980915 262 99ft 0kts
03-Sep-19 18:00 33.872827 -117.980915 262 99ft 0kts
03-Sep-19 18:01 33.872827 -117.980915 262 99ft 0kts
03-Sep-19 18:02 33.872826 -117.980915 262 99ft 0kts
03-Sep-19 18:03 33.872826 -117.980915 262 99ft 0kts
03-Sep-19 18:04 33.872826 -117.980915 262 99ft 0kts
03-Sep-19 18:05 33.872826 -117.980915 262 99ft 0kts
03-Sep-19 18:06 33.872826 -117.980915 262 99ft 0kts
03-Sep-19 18:07 33.872826 -117.980915 262 99ft 0kts
03-Sep-19 18:08 33.872312 -117.980537 77 99ft 9kts
03-Sep-19 18:09 33.873170 -117.976094 81 99ft 5kts
03-Sep-19 18:10 33.873214 -117.975872 70 99ft 0kts
03-Sep-19 18:11 33.872763 -117.976041 257 99ft 29kts
03-Sep-19 18:12 33.867204 -118.000201 239 784ft 82kts
03-Sep-19 18:13 33.846711 -117.996048 139 1566ft 91kts
03-Sep-19 18:14 33.829234 -117.975104 131 2368ft 89kts
03-Sep-19 18:15 33.806345 -117.966019 178 3068ft 92kts
03-Sep-19 18:16 33.780990 -117.963088 175 3772ft 92kts
03-Sep-19 18:17 33.756206 -117.959842 176 4449ft 87kts
03-Sep-19 18:18 33.731967 -117.956353 173 5016ft 91kts
03-Sep-19 18:19 33.704351 -117.952349 179 5067ft 105kts
03-Sep-19 18:20 33.683283 -117.935236 126 5163ft 100kts
03-Sep-19 18:21 33.664431 -117.909540 130 5052ft 107kts
03-Sep-19 18:22 33.643692 -117.883967 134 5044ft 108kts
03-Sep-19 18:23 33.622103 -117.859194 131 5057ft 107kts
03-Sep-19 18:24 33.602079 -117.832912 130 5061ft 106kts
03-Sep-19 18:25 33.582398 -117.806339 125 5062ft 106kts
03-Sep-19 18:26 33.564040 -117.778417 128 5062ft 106kts
03-Sep-19 18:27 33.543056 -117.752975 133 5062ft 107kts
03-Sep-19 18:28 33.522076 -117.727627 138 5057ft 108kts
03-Sep-19 18:29 33.501910 -117.701347 112 5051ft 107kts
03-Sep-19 18:30 33.481257 -117.676882 129 5021ft 110kts
03-Sep-19 18:31 33.458779 -117.652285 139 5041ft 110kts
03-Sep-19 18:32 33.436228 -117.629096 141 5098ft 105kts
03-Sep-19 18:33 33.414002 -117.606836 138 5111ft 104kts
03-Sep-19 18:34 33.393847 -117.581888 135 5105ft 104kts
03-Sep-19 18:35 33.373636 -117.556605 142 5029ft 104kts
03-Sep-19 18:36 33.352100 -117.533404 139 4947ft 102kts
03-Sep-19 18:37 33.329599 -117.513189 146 4917ft 102kts
03-Sep-19 18:38 33.306928 -117.494929 146 4991ft 101kts
03-Sep-19 18:39 33.287610 -117.469724 130 4952ft 103kts
03-Sep-19 18:40 33.268324 -117.444887 138 5018ft 100kts
03-Sep-19 18:41 33.250225 -117.418874 127 4868ft 103kts
03-Sep-19 18:42 33.231479 -117.393950 138 4287ft 101kts
03-Sep-19 18:43 33.211209 -117.370105 141 4006ft 102kts
03-Sep-19 18:44 33.188962 -117.348875 143 3659ft 104kts
03-Sep-19 18:45 33.167379 -117.326184 138 2828ft 104kts
03-Sep-19 18:46 33.147587 -117.302156 136 1798ft 100kts
03-Sep-19 18:47 33.146550 -117.269056 77 1473ft 109kts
03-Sep-19 18:48 33.140581 -117.243657 174 1177ft 80kts
03-Sep-19 18:49 33.131015 -117.263129 257 671ft 70kts
03-Sep-19 18:50 33.127901 -117.279535 224 334ft 19kts
03-Sep-19 18:51 33.127075 -117.278799 166 334ft 0kts

Navigation Log

Ident Type
Flight plan parsing failed, navigation log unavailable